Thedford, Canada
Current Conditions -  °F | °C
As of 6:00 AM on Thursday 18 Dec 2014 (Local Time) from CYZR Reporting Station
Overcast Overcast  
Wind Chill: -6°   Ceiling: 1400
Heat Index: -1°   Visibility: 9mi
Dew Point: -3°   Wind: 12mph
Humidity: 86%   Direction: 340°NNW
Pressure: 30.15"   Gusts: 17mph
Location:  43.17°N, 81.85°W
Report Text: CYZR 181100Z AUTO 34010G15KT 9SM OVC014 M01/M03 A3015 RMK SLP219
Loading
Personal Weather Stations






























Interactive Weather Map New forecast layout! Learn more

10-Day Weather Forecast

Advertisements
Track Severe Weather on mobile